sensor_id;sensor_type;location;lat;lon;timestamp;pressure;altitude;pressure_sealevel;temperature;humidity
41202;BME280;26936;50.524;8.684;2024-02-16T00:00:06;99143.56;;;11.02;100.00
41202;BME280;26936;50.524;8.684;2024-02-16T00:02:32;99146.72;;;11.04;100.00
41202;BME280;26936;50.524;8.684;2024-02-16T00:04:58;99155.34;;;11.10;100.00
41202;BME280;26936;50.524;8.684;2024-02-16T00:07:23;99154.75;;;11.15;100.00
41202;BME280;26936;50.524;8.684;2024-02-16T00:09:49;99146.63;;;11.17;100.00
41202;BME280;26936;50.524;8.684;2024-02-16T00:12:14;99155.28;;;11.22;100.00
41202;BME280;26936;50.524;8.684;2024-02-16T00:14:40;99151.31;;;11.20;100.00
41202;BME280;26936;50.524;8.684;2024-02-16T00:17:05;99145.56;;;11.23;100.00
41202;BME280;26936;50.524;8.684;2024-02-16T00:19:32;99149.16;;;11.24;100.00
41202;BME280;26936;50.524;8.684;2024-02-16T00:21:57;99142.59;;;11.27;100.00
41202;BME280;26936;50.524;8.684;2024-02-16T00:24:22;99148.69;;;11.25;100.00
41202;BME280;26936;50.524;8.684;2024-02-16T00:26:47;99143.06;;;11.25;100.00
41202;BME280;26936;50.524;8.684;2024-02-16T00:29:13;99143.84;;;11.26;100.00
41202;BME280;26936;50.524;8.684;2024-02-16T00:31:38;99147.78;;;11.28;100.00
41202;BME280;26936;50.524;8.684;2024-02-16T00:34:04;99142.59;;;11.27;100.00
41202;BME280;26936;50.524;8.684;2024-02-16T00:36:29;99140.56;;;11.27;100.00
41202;BME280;26936;50.524;8.684;2024-02-16T00:38:56;99136.97;;;11.27;100.00
41202;BME280;26936;50.524;8.684;2024-02-16T00:41:22;99130.06;;;11.28;100.00
41202;BME280;26936;50.524;8.684;2024-02-16T00:43:49;99133.69;;;11.28;100.00
41202;BME280;26936;50.524;8.684;2024-02-16T00:46:14;99135.09;;;11.33;100.00
41202;BME280;26936;50.524;8.684;2024-02-16T00:48:39;99126.97;;;11.35;100.00
41202;BME280;26936;50.524;8.684;2024-02-16T00:51:05;99134.69;;;11.43;100.00
41202;BME280;26936;50.524;8.684;2024-02-16T00:53:30;99132.31;;;11.42;100.00
41202;BME280;26936;50.524;8.684;2024-02-16T00:55:55;99131.06;;;11.43;100.00
41202;BME280;26936;50.524;8.684;2024-02-16T00:58:20;99124.34;;;11.49;100.00
41202;BME280;26936;50.524;8.684;2024-02-16T01:00:46;99118.72;;;11.49;100.00
41202;BME280;26936;50.524;8.684;2024-02-16T01:03:11;99112.59;;;11.51;100.00
41202;BME280;26936;50.524;8.684;2024-02-16T01:05:38;99113.06;;;11.49;100.00
41202;BME280;26936;50.524;8.684;2024-02-16T01:08:04;99107.56;;;11.37;100.00
41202;BME280;26936;50.524;8.684;2024-02-16T01:10:29;99107.09;;;11.38;100.00
41202;BME280;26936;50.524;8.684;2024-02-16T01:12:54;99109.78;;;11.42;100.00
41202;BME280;26936;50.524;8.684;2024-02-16T01:15:21;99112.88;;;11.44;100.00
41202;BME280;26936;50.524;8.684;2024-02-16T01:17:46;99105.88;;;11.48;100.00
41202;BME280;26936;50.524;8.684;2024-02-16T01:20:12;99116.34;;;11.48;100.00
41202;BME280;26936;50.524;8.684;2024-02-16T01:22:38;99108.69;;;11.48;100.00
41202;BME280;26936;50.524;8.684;2024-02-16T01:25:03;99098.34;;;11.45;100.00
41202;BME280;26936;50.524;8.684;2024-02-16T01:27:29;99098.34;;;11.45;100.00
41202;BME280;26936;50.524;8.684;2024-02-16T01:29:54;99103.19;;;11.45;100.00
41202;BME280;26936;50.524;8.684;2024-02-16T01:32:19;99109.78;;;11.42;100.00
41202;BME280;26936;50.524;8.684;2024-02-16T01:34:44;99097.69;;;11.41;100.00
41202;BME280;26936;50.524;8.684;2024-02-16T01:37:12;99109.63;;;11.45;100.00
41202;BME280;26936;50.524;8.684;2024-02-16T01:39:37;99096.91;;;11.41;100.00
41202;BME280;26936;50.524;8.684;2024-02-16T01:42:03;99102.88;;;11.43;100.00
41202;BME280;26936;50.524;8.684;2024-02-16T01:44:28;99108.84;;;11.45;100.00
41202;BME280;26936;50.524;8.684;2024-02-16T01:46:53;99110.84;;;11.44;100.00
41202;BME280;26936;50.524;8.684;2024-02-16T01:49:19;99107.09;;;11.47;100.00
41202;BME280;26936;50.524;8.684;2024-02-16T01:51:44;99110.41;;;11.46;100.00
41202;BME280;26936;50.524;8.684;2024-02-16T01:54:12;99108.69;;;11.48;100.00
41202;BME280;26936;50.524;8.684;2024-02-16T01:56:38;99106.16;;;11.41;100.00
41202;BME280;26936;50.524;8.684;2024-02-16T01:59:03;99105.88;;;11.48;100.00
41202;BME280;26936;50.524;8.684;2024-02-16T02:01:29;99104.94;;;11.51;100.00
41202;BME280;26936;50.524;8.684;2024-02-16T02:03:55;99099.28;;;11.51;100.00
41202;BME280;26936;50.524;8.684;2024-02-16T02:06:20;99094.88;;;11.50;100.00
41202;BME280;26936;50.524;8.684;2024-02-16T02:08:46;99088.47;;;11.50;100.00
41202;BME280;26936;50.524;8.684;2024-02-16T02:11:12;99094.44;;;11.52;100.00
41202;BME280;26936;50.524;8.684;2024-02-16T02:13:37;99098.19;;;11.49;100.00
41202;BME280;26936;50.524;8.684;2024-02-16T02:16:02;99103.53;;;11.56;100.00
41202;BME280;26936;50.524;8.684;2024-02-16T02:18:29;99096.81;;;11.53;100.00
41202;BME280;26936;50.524;8.684;2024-02-16T02:20:54;99096.47;;;11.51;100.00
41202;BME280;26936;50.524;8.684;2024-02-16T02:23:20;99100.53;;;11.50;100.00
41202;BME280;26936;50.524;8.684;2024-02-16T02:25:46;99088.63;;;11.46;100.00
41202;BME280;26936;50.524;8.684;2024-02-16T02:28:12;99088.78;;;11.43;100.00
41202;BME280;26936;50.524;8.684;2024-02-16T02:30:38;99085.94;;;11.43;100.00
41202;BME280;26936;50.524;8.684;2024-02-16T02:33:04;99083.13;;;11.43;100.00
41202;BME280;26936;50.524;8.684;2024-02-16T02:35:30;99074.47;;;11.37;100.00
41202;BME280;26936;50.524;8.684;2024-02-16T02:37:55;99071.38;;;11.35;100.00
41202;BME280;26936;50.524;8.684;2024-02-16T02:40:20;99073.41;;;11.35;100.00
41202;BME280;26936;50.524;8.684;2024-02-16T02:42:45;99085.75;;;11.37;100.00
41202;BME280;26936;50.524;8.684;2024-02-16T02:45:11;99083.59;;;11.41;100.00
41202;BME280;26936;50.524;8.684;2024-02-16T02:47:36;99082.50;;;11.39;100.00
41202;BME280;26936;50.524;8.684;2024-02-16T02:50:01;99076.06;;;11.38;100.00
41202;BME280;26936;50.524;8.684;2024-02-16T02:52:27;99067.56;;;11.29;100.00
41202;BME280;26936;50.524;8.684;2024-02-16T02:54:53;99073.59;;;11.40;100.00
41202;BME280;26936;50.524;8.684;2024-02-16T02:57:18;99064.31;;;11.40;100.00
41202;BME280;26936;50.524;8.684;2024-02-16T02:59:43;99071.19;;;11.30;100.00
41202;BME280;26936;50.524;8.684;2024-02-16T03:02:10;99071.66;;;11.28;100.00
41202;BME280;26936;50.524;8.684;2024-02-16T03:04:35;99066.50;;;11.36;100.00
41202;BME280;26936;50.524;8.684;2024-02-16T03:07:01;99076.53;;;11.37;100.00
41202;BME280;26936;50.524;8.684;2024-02-16T03:09:26;99060.25;;;11.32;100.00
41202;BME280;26936;50.524;8.684;2024-02-16T03:11:51;99064.00;;;11.29;100.00
41202;BME280;26936;50.524;8.684;2024-02-16T03:14:17;99071.31;;;11.26;100.00
41202;BME280;26936;50.524;8.684;2024-02-16T03:16:42;99074.81;;;11.30;100.00
41202;BME280;26936;50.524;8.684;2024-02-16T03:19:08;99077.75;;;11.27;100.00
41202;BME280;26936;50.524;8.684;2024-02-16T03:21:36;99066.03;;;11.37;100.00
41202;BME280;26936;50.524;8.684;2024-02-16T03:24:02;99079.69;;;11.39;100.00
41202;BME280;26936;50.524;8.684;2024-02-16T03:26:29;99077.47;;;11.34;100.00
41202;BME280;26936;50.524;8.684;2024-02-16T03:28:54;99065.88;;;11.41;100.00
41202;BME280;26936;50.524;8.684;2024-02-16T03:31:22;99060.44;;;11.46;100.00
41202;BME280;26936;50.524;8.684;2024-02-16T03:33:48;99064.19;;;11.43;100.00
41202;BME280;26936;50.524;8.684;2024-02-16T03:36:14;99063.84;;;11.41;100.00
41202;BME280;26936;50.524;8.684;2024-02-16T03:38:44;99069.50;;;11.41;100.00
41202;BME280;26936;50.524;8.684;2024-02-16T03:41:17;99074.47;;;11.37;100.00
41202;BME280;26936;50.524;8.684;2024-02-16T03:43:42;99082.50;;;11.39;100.00
41202;BME280;26936;50.524;8.684;2024-02-16T03:46:08;99081.25;;;11.40;100.00
41202;BME280;26936;50.524;8.684;2024-02-16T03:48:33;99075.75;;;11.36;100.00
41202;BME280;26936;50.524;8.684;2024-02-16T03:50:59;99076.41;;;11.40;100.00
41202;BME280;26936;50.524;8.684;2024-02-16T03:53:24;99076.56;;;11.46;100.00
41202;BME280;26936;50.524;8.684;2024-02-16T03:55:49;99077.34;;;11.46;100.00
41202;BME280;26936;50.524;8.684;2024-02-16T03:58:16;99079.03;;;11.44;100.00
41202;BME280;26936;50.524;8.684;2024-02-16T04:00:42;99075.75;;;11.36;100.00
41202;BME280;26936;50.524;8.684;2024-02-16T04:03:07;99091.38;;;11.28;100.00
41202;BME280;26936;50.524;8.684;2024-02-16T04:05:32;99093.88;;;11.26;100.00
41202;BME280;26936;50.524;8.684;2024-02-16T04:08:00;99093.63;;;11.42;100.00
41202;BME280;26936;50.524;8.684;2024-02-16T04:10:27;99108.03;;;11.44;100.00
41202;BME280;26936;50.524;8.684;2024-02-16T04:12:53;99104.28;;;11.47;100.00
41202;BME280;26936;50.524;8.684;2024-02-16T04:15:18;99106.16;;;11.50;100.00
41202;BME280;26936;50.524;8.684;2024-02-16T04:17:44;99113.81;;;11.41;100.00
41202;BME280;26936;50.524;8.684;2024-02-16T04:20:09;99106.63;;;11.49;100.00
41202;BME280;26936;50.524;8.684;2024-02-16T04:22:35;99099.44;;;11.48;100.00
41202;BME280;26936;50.524;8.684;2024-02-16T04:25:03;99104.13;;;11.51;100.00
41202;BME280;26936;50.524;8.684;2024-02-16T04:27:29;99098.19;;;11.49;100.00
41202;BME280;26936;50.524;8.684;2024-02-16T04:29:54;99098.66;;;11.47;100.00
41202;BME280;26936;50.524;8.684;2024-02-16T04:32:19;99102.53;;;11.41;100.00
41202;BME280;26936;50.524;8.684;2024-02-16T04:34:44;99095.34;;;11.40;100.00
41202;BME280;26936;50.524;8.684;2024-02-16T04:37:12;99101.47;;;11.47;100.00
41202;BME280;26936;50.524;8.684;2024-02-16T04:39:37;99096.59;;;11.39;100.00
41202;BME280;26936;50.524;8.684;2024-02-16T04:42:03;99103.53;;;11.47;100.00
41202;BME280;26936;50.524;8.684;2024-02-16T04:44:28;99105.25;;;11.53;100.00
41202;BME280;26936;50.524;8.684;2024-02-16T04:46:54;99104.31;;;11.56;100.00
41202;BME280;26936;50.524;8.684;2024-02-16T04:49:19;99106.97;;;11.51;100.00
41202;BME280;26936;50.524;8.684;2024-02-16T04:51:45;99109.78;;;11.51;100.00
41202;BME280;26936;50.524;8.684;2024-02-16T04:54:12;99107.25;;;11.44;100.00
41202;BME280;26936;50.524;8.684;2024-02-16T04:56:38;99115.28;;;11.45;100.00
41202;BME280;26936;50.524;8.684;2024-02-16T04:59:04;99109.63;;;11.45;100.00
41202;BME280;26936;50.524;8.684;2024-02-16T05:01:30;99104.00;;;11.45;100.00
41202;BME280;26936;50.524;8.684;2024-02-16T05:03:57;99101.59;;;11.44;100.00
41202;BME280;26936;50.524;8.684;2024-02-16T05:06:22;99111.78;;;11.41;100.00
41202;BME280;26936;50.524;8.684;2024-02-16T05:08:48;99115.88;;;11.40;100.00
41202;BME280;26936;50.524;8.684;2024-02-16T05:11:13;99112.06;;;11.34;100.00
41202;BME280;26936;50.524;8.684;2024-02-16T05:13:38;99115.22;;;11.36;100.00
41202;BME280;26936;50.524;8.684;2024-02-16T05:16:09;99107.09;;;11.38;100.00
41202;BME280;26936;50.524;8.684;2024-02-16T05:18:34;99098.97;;;11.40;100.00
41202;BME280;26936;50.524;8.684;2024-02-16T05:20:59;99101.59;;;11.44;100.00
41202;BME280;26936;50.524;8.684;2024-02-16T05:23:24;99099.25;;;11.42;100.00
41202;BME280;26936;50.524;8.684;2024-02-16T05:25:50;99092.38;;;11.43;100.00
41202;BME280;26936;50.524;8.684;2024-02-16T05:28:15;99077.63;;;11.39;100.00
41202;BME280;26936;50.524;8.684;2024-02-16T05:30:40;99076.41;;;11.40;100.00
41202;BME280;26936;50.524;8.684;2024-02-16T05:33:06;99067.00;;;11.43;100.00
41202;BME280;26936;50.524;8.684;2024-02-16T05:35:31;99068.41;;;11.39;100.00
41202;BME280;26936;50.524;8.684;2024-02-16T05:37:59;99070.56;;;11.35;100.00
41202;BME280;26936;50.524;8.684;2024-02-16T05:40:31;99069.63;;;11.29;100.00
41202;BME280;26936;50.524;8.684;2024-02-16T05:43:09;99071.47;;;11.23;100.00
41202;BME280;26936;50.524;8.684;2024-02-16T05:45:34;99064.47;;;11.27;100.00
41202;BME280;26936;50.524;8.684;2024-02-16T05:48:00;99053.13;;;11.09;100.00
41202;BME280;26936;50.524;8.684;2024-02-16T05:50:26;99061.56;;;11.09;100.00
41202;BME280;26936;50.524;8.684;2024-02-16T05:52:51;99056.69;;;11.10;100.00
41202;BME280;26936;50.524;8.684;2024-02-16T05:55:17;99047.34;;;11.22;100.00
41202;BME280;26936;50.524;8.684;2024-02-16T05:57:44;99055.53;;;11.29;100.00
41202;BME280;26936;50.524;8.684;2024-02-16T06:00:09;99051.91;;;11.28;100.00
41202;BME280;26936;50.524;8.684;2024-02-16T06:02:36;99052.66;;;11.11;100.00
41202;BME280;26936;50.524;8.684;2024-02-16T06:05:02;99057.97;;;11.09;100.00
41202;BME280;26936;50.524;8.684;2024-02-16T06:07:28;99059.22;;;11.08;100.00
41202;BME280;26936;50.524;8.684;2024-02-16T06:09:55;99054.06;;;11.06;100.00
41202;BME280;26936;50.524;8.684;2024-02-16T06:12:21;99073.66;;;11.19;100.00
41202;BME280;26936;50.524;8.684;2024-02-16T06:14:46;99068.03;;;11.28;100.00
41202;BME280;26936;50.524;8.684;2024-02-16T06:17:13;99065.69;;;11.26;100.00
41202;BME280;26936;50.524;8.684;2024-02-16T06:19:40;99065.94;;;11.10;100.00
41202;BME280;26936;50.524;8.684;2024-02-16T06:22:05;99063.41;;;11.03;100.00
41202;BME280;26936;50.524;8.684;2024-02-16T06:24:31;99065.47;;;11.03;100.00
41202;BME280;26936;50.524;8.684;2024-02-16T06:26:57;99067.63;;;10.98;100.00
41202;BME280;26936;50.524;8.684;2024-02-16T06:29:22;99070.91;;;10.97;100.00
41202;BME280;26936;50.524;8.684;2024-02-16T06:31:48;99070.28;;;10.93;100.00
41202;BME280;26936;50.524;8.684;2024-02-16T06:34:16;99076.53;;;10.97;100.00
41202;BME280;26936;50.524;8.684;2024-02-16T06:36:42;99085.00;;;10.97;100.00
41202;BME280;26936;50.524;8.684;2024-02-16T06:39:07;99090.63;;;10.97;100.00
41202;BME280;26936;50.524;8.684;2024-02-16T06:41:33;99098.44;;;10.93;100.00
41202;BME280;26936;50.524;8.684;2024-02-16T06:43:58;99101.06;;;10.87;100.00
41202;BME280;26936;50.524;8.684;2024-02-16T06:46:23;99105.16;;;10.86;100.00
41202;BME280;26936;50.524;8.684;2024-02-16T06:49:06;99109.88;;;10.98;100.00
41202;BME280;26936;50.524;8.684;2024-02-16T06:51:31;99103.63;;;10.94;100.00
41202;BME280;26936;50.524;8.684;2024-02-16T06:53:56;99108.00;;;10.95;100.00
41202;BME280;26936;50.524;8.684;2024-02-16T06:56:21;99098.44;;;10.93;100.00
41202;BME280;26936;50.524;8.684;2024-02-16T06:58:47;99107.81;;;10.90;100.00
41202;BME280;26936;50.524;8.684;2024-02-16T07:01:16;99110.50;;;10.93;100.00
41202;BME280;26936;50.524;8.684;2024-02-16T07:03:44;99096.06;;;10.91;100.00
41202;BME280;26936;50.524;8.684;2024-02-16T07:06:09;99100.16;;;10.90;100.00
41202;BME280;26936;50.524;8.684;2024-02-16T07:08:42;99102.97;;;10.90;100.00
41202;BME280;26936;50.524;8.684;2024-02-16T07:11:08;99103.44;;;10.89;100.00
41202;BME280;26936;50.524;8.684;2024-02-16T07:13:34;99115.34;;;10.93;100.00
41202;BME280;26936;50.524;8.684;2024-02-16T07:15:59;99120.38;;;10.98;100.00
41202;BME280;26936;50.524;8.684;2024-02-16T07:18:25;99124.50;;;11.06;100.00
41202;BME280;26936;50.524;8.684;2024-02-16T07:20:50;99134.19;;;11.05;100.00
41202;BME280;26936;50.524;8.684;2024-02-16T07:23:16;99133.59;;;11.10;100.00
41202;BME280;26936;50.524;8.684;2024-02-16T07:25:41;99133.13;;;11.12;100.00
41202;BME280;26936;50.524;8.684;2024-02-16T07:28:07;99133.59;;;11.10;100.00
41202;BME280;26936;50.524;8.684;2024-02-16T07:30:33;99148.34;;;11.14;100.00
41202;BME280;26936;50.524;8.684;2024-02-16T07:32:59;99157.75;;;11.20;100.00
41202;BME280;26936;50.524;8.684;2024-02-16T07:35:24;99162.78;;;11.25;100.00
41202;BME280;26936;50.524;8.684;2024-02-16T07:37:50;99166.56;;;11.31;100.00
41202;BME280;26936;50.524;8.684;2024-02-16T07:40:19;99173.63;;;11.36;100.00
41202;BME280;26936;50.524;8.684;2024-02-16T07:42:45;99180.72;;;11.40;100.00
41202;BME280;26936;50.524;8.684;2024-02-16T07:45:11;99164.28;;;11.48;100.00
41202;BME280;26936;50.524;8.684;2024-02-16T07:47:37;99166.50;;;11.53;100.00
41202;BME280;26936;50.524;8.684;2024-02-16T07:50:03;99166.69;;;11.58;100.00
41202;BME280;26936;50.524;8.684;2024-02-16T07:52:28;99175.69;;;11.66;100.00
41202;BME280;26936;50.524;8.684;2024-02-16T07:54:54;99167.41;;;11.71;100.00
41202;BME280;26936;50.524;8.684;2024-02-16T07:57:19;99164.41;;;11.75;100.00
41202;BME280;26936;50.524;8.684;2024-02-16T07:59:44;99171.78;;;11.81;100.00
41202;BME280;26936;50.524;8.684;2024-02-16T08:02:10;99164.16;;;11.91;100.00
41202;BME280;26936;50.524;8.684;2024-02-16T08:04:40;99169.16;;;11.96;100.00
41202;BME280;26936;50.524;8.684;2024-02-16T08:07:06;99167.78;;;12.00;100.00
41202;BME280;26936;50.524;8.684;2024-02-16T08:09:31;99172.50;;;12.03;100.00
41202;BME280;26936;50.524;8.684;2024-02-16T08:11:56;99164.16;;;12.09;100.00
41202;BME280;26936;50.524;8.684;2024-02-16T08:14:22;99169.53;;;12.07;100.00
41202;BME280;26936;50.524;8.684;2024-02-16T08:16:47;99165.91;;;12.06;100.00
41202;BME280;26936;50.524;8.684;2024-02-16T08:19:12;99178.59;;;12.11;100.00
41202;BME280;26936;50.524;8.684;2024-02-16T08:21:39;99182.41;;;12.17;100.00
41202;BME280;26936;50.524;8.684;2024-02-16T08:24:05;99180.19;;;12.12;100.00
41202;BME280;26936;50.524;8.684;2024-02-16T08:26:30;99184.09;;;12.05;100.00
41202;BME280;26936;50.524;8.684;2024-02-16T08:28:55;99189.31;;;12.25;100.00
41202;BME280;26936;50.524;8.684;2024-02-16T08:31:21;99187.25;;;12.25;100.00
41202;BME280;26936;50.524;8.684;2024-02-16T08:33:46;99187.41;;;12.31;100.00
41202;BME280;26936;50.524;8.684;2024-02-16T08:36:12;99193.53;;;12.39;100.00
41202;BME280;26936;50.524;8.684;2024-02-16T08:38:37;99194.19;;;12.43;100.00
41202;BME280;26936;50.524;8.684;2024-02-16T08:41:03;99187.13;;;12.47;100.00
41202;BME280;26936;50.524;8.684;2024-02-16T08:43:28;99192.16;;;12.43;100.00
41202;BME280;26936;50.524;8.684;2024-02-16T08:45:54;99185.22;;;12.44;100.00
41202;BME280;26936;50.524;8.684;2024-02-16T08:48:19;99193.56;;;12.48;100.00
41202;BME280;26936;50.524;8.684;2024-02-16T08:50:44;99193.69;;;12.53;100.00
41202;BME280;26936;50.524;8.684;2024-02-16T08:53:10;99194.50;;;12.54;100.00
41202;BME280;26936;50.524;8.684;2024-02-16T08:55:35;99200.78;;;12.58;100.00
41202;BME280;26936;50.524;8.684;2024-02-16T08:58:00;99208.91;;;12.65;100.00
41202;BME280;26936;50.524;8.684;2024-02-16T09:00:26;99196.84;;;12.64;100.00
41202;BME280;26936;50.524;8.684;2024-02-16T09:02:52;99204.69;;;12.60;100.00
41202;BME280;26936;50.524;8.684;2024-02-16T09:05:19;99208.31;;;12.61;100.00
41202;BME280;26936;50.524;8.684;2024-02-16T09:07:44;99205.94;;;12.68;100.00
41202;BME280;26936;50.524;8.684;2024-02-16T09:10:09;99212.09;;;12.76;100.00
41202;BME280;26936;50.524;8.684;2024-02-16T09:12:35;99214.59;;;12.74;100.00
41202;BME280;26936;50.524;8.684;2024-02-16T09:15:00;99212.84;;;12.76;100.00
41202;BME280;26936;50.524;8.684;2024-02-16T09:17:25;99207.19;;;12.76;100.00
41202;BME280;26936;50.524;8.684;2024-02-16T09:19:51;99212.69;;;12.80;100.00
41202;BME280;26936;50.524;8.684;2024-02-16T09:22:16;99213.50;;;12.80;100.00
41202;BME280;26936;50.524;8.684;2024-02-16T09:24:42;99208.16;;;12.82;100.00
41202;BME280;26936;50.524;8.684;2024-02-16T09:27:11;99215.69;;;12.85;100.00
41202;BME280;26936;50.524;8.684;2024-02-16T09:29:37;99207.22;;;12.85;100.00
41202;BME280;26936;50.524;8.684;2024-02-16T09:32:03;99212.50;;;12.92;100.00
41202;BME280;26936;50.524;8.684;2024-02-16T09:34:28;99214.56;;;12.92;100.00
41202;BME280;26936;50.524;8.684;2024-02-16T09:36:54;99206.91;;;13.01;100.00
41202;BME280;26936;50.524;8.684;2024-02-16T09:39:19;99214.44;;;13.04;100.00
41202;BME280;26936;50.524;8.684;2024-02-16T09:41:49;99222.59;;;13.11;100.00
41202;BME280;26936;50.524;8.684;2024-02-16T09:44:16;99225.56;;;13.17;99.35
41202;BME280;26936;50.524;8.684;2024-02-16T09:46:41;99223.03;;;13.19;99.55
41202;BME280;26936;50.524;8.684;2024-02-16T09:49:07;99227.59;;;13.25;99.99
41202;BME280;26936;50.524;8.684;2024-02-16T09:51:36;99239.69;;;13.26;99.68
41202;BME280;26936;50.524;8.684;2024-02-16T09:54:02;99231.16;;;13.35;99.50
41202;BME280;26936;50.524;8.684;2024-02-16T09:56:28;99242.63;;;13.40;98.99
41202;BME280;26936;50.524;8.684;2024-02-16T09:58:53;99233.81;;;13.47;99.17
41202;BME280;26936;50.524;8.684;2024-02-16T10:01:21;99230.84;;;13.42;98.77
41202;BME280;26936;50.524;8.684;2024-02-16T10:03:46;99230.81;;;13.51;98.79
41202;BME280;26936;50.524;8.684;2024-02-16T10:06:13;99236.13;;;13.58;98.07
41202;BME280;26936;50.524;8.684;2024-02-16T10:08:51;99233.75;;;13.65;98.81
41202;BME280;26936;50.524;8.684;2024-02-16T10:11:21;99235.63;;;13.69;98.23
41202;BME280;26936;50.524;8.684;2024-02-16T10:13:59;99241.88;;;13.73;97.75
41202;BME280;26936;50.524;8.684;2024-02-16T10:16:25;99243.16;;;13.72;97.24
41202;BME280;26936;50.524;8.684;2024-02-16T10:18:54;99241.09;;;13.72;97.60
41202;BME280;26936;50.524;8.684;2024-02-16T10:21:27;99252.09;;;13.79;97.11
41202;BME280;26936;50.524;8.684;2024-02-16T10:24:00;99260.41;;;13.83;97.25
41202;BME280;26936;50.524;8.684;2024-02-16T10:26:29;99244.06;;;13.87;97.11
41202;BME280;26936;50.524;8.684;2024-02-16T10:28:56;99255.19;;;13.90;96.35
41202;BME280;26936;50.524;8.684;2024-02-16T10:31:25;99250.78;;;13.89;95.36
41202;BME280;26936;50.524;8.684;2024-02-16T10:33:57;99254.38;;;13.99;95.80
41202;BME280;26936;50.524;8.684;2024-02-16T10:36:24;99262.06;;;13.98;95.51
41202;BME280;26936;50.524;8.684;2024-02-16T10:38:51;99268.19;;;14.06;96.06
41202;BME280;26936;50.524;8.684;2024-02-16T10:41:18;99267.38;;;14.05;95.70
41202;BME280;26936;50.524;8.684;2024-02-16T10:43:48;99268.00;;;14.09;96.16
41202;BME280;26936;50.524;8.684;2024-02-16T10:46:15;99267.34;;;14.14;95.39
41202;BME280;26936;50.524;8.684;2024-02-16T10:48:41;99269.44;;;14.05;95.41
41202;BME280;26936;50.524;8.684;2024-02-16T10:51:08;99268.28;;;14.11;95.50
41202;BME280;26936;50.524;8.684;2024-02-16T10:53:34;99275.84;;;14.14;95.83
41202;BME280;26936;50.524;8.684;2024-02-16T10:56:00;99274.75;;;14.12;95.24
41202;BME280;26936;50.524;8.684;2024-02-16T10:58:27;99268.59;;;14.13;95.10
41202;BME280;26936;50.524;8.684;2024-02-16T11:00:54;99272.22;;;14.14;95.58
41202;BME280;26936;50.524;8.684;2024-02-16T11:03:26;99263.44;;;14.12;95.14
41202;BME280;26936;50.524;8.684;2024-02-16T11:05:53;99261.88;;;14.11;95.13
41202;BME280;26936;50.524;8.684;2024-02-16T11:08:20;99262.94;;;14.13;95.40
41202;BME280;26936;50.524;8.684;2024-02-16T11:10:56;99270.78;;;14.18;95.07
41202;BME280;26936;50.524;8.684;2024-02-16T11:13:26;99268.56;;;14.22;94.71
41202;BME280;26936;50.524;8.684;2024-02-16T11:16:09;99267.63;;;14.25;94.88
41202;BME280;26936;50.524;8.684;2024-02-16T11:18:39;99250.00;;;14.30;93.99
41202;BME280;26936;50.524;8.684;2024-02-16T11:21:05;99262.69;;;14.35;93.48
41202;BME280;26936;50.524;8.684;2024-02-16T11:23:34;99254.63;;;14.42;93.11
41202;BME280;26936;50.524;8.684;2024-02-16T11:26:01;99245.63;;;14.44;92.77
41202;BME280;26936;50.524;8.684;2024-02-16T11:28:28;99250.94;;;14.51;93.09
41202;BME280;26936;50.524;8.684;2024-02-16T11:30:54;99248.25;;;14.56;92.55
41202;BME280;26936;50.524;8.684;2024-02-16T11:33:19;99248.06;;;14.60;91.28
41202;BME280;26936;50.524;8.684;2024-02-16T11:35:55;99249.13;;;14.62;92.43
41202;BME280;26936;50.524;8.684;2024-02-16T11:38:21;99253.81;;;14.65;93.09
41202;BME280;26936;50.524;8.684;2024-02-16T11:43:22;99256.88;;;14.76;93.09
41202;BME280;26936;50.524;8.684;2024-02-16T11:45:48;99262.09;;;14.78;92.94
41202;BME280;26936;50.524;8.684;2024-02-16T11:48:19;99260.81;;;14.79;92.42
41202;BME280;26936;50.524;8.684;2024-02-16T11:50:46;99257.00;;;14.82;92.32
41202;BME280;26936;50.524;8.684;2024-02-16T11:53:16;99255.94;;;14.79;91.10
41202;BME280;26936;50.524;8.684;2024-02-16T11:55:46;99258.69;;;14.88;91.89
41202;BME280;26936;50.524;8.684;2024-02-16T11:58:12;99259.47;;;14.89;91.66
41202;BME280;26936;50.524;8.684;2024-02-16T12:00:39;99270.81;;;14.89;92.14
41202;BME280;26936;50.524;8.684;2024-02-16T12:03:06;99274.06;;;14.96;90.99
41202;BME280;26936;50.524;8.684;2024-02-16T12:05:32;99280.34;;;15.01;92.29
41202;BME280;26936;50.524;8.684;2024-02-16T12:07:57;99278.09;;;15.05;90.71
41202;BME280;26936;50.524;8.684;2024-02-16T12:10:24;99275.88;;;15.09;90.40
41202;BME280;26936;50.524;8.684;2024-02-16T12:12:50;99274.66;;;15.01;90.07
41202;BME280;26936;50.524;8.684;2024-02-16T12:15:15;99276.34;;;15.07;89.99
41202;BME280;26936;50.524;8.684;2024-02-16T12:17:42;99269.41;;;15.08;90.49
41202;BME280;26936;50.524;8.684;2024-02-16T12:20:12;99266.66;;;14.99;89.96
41202;BME280;26936;50.524;8.684;2024-02-16T12:22:40;99275.44;;;15.01;88.89
41202;BME280;26936;50.524;8.684;2024-02-16T12:25:05;99274.19;;;15.02;88.37
41202;BME280;26936;50.524;8.684;2024-02-16T12:27:31;99275.75;;;15.03;89.36
41202;BME280;26936;50.524;8.684;2024-02-16T12:29:56;99281.31;;;14.98;89.85
41202;BME280;26936;50.524;8.684;2024-02-16T12:32:21;99280.94;;;15.05;89.01
41202;BME280;26936;50.524;8.684;2024-02-16T12:34:47;99279.72;;;14.96;88.48
41202;BME280;26936;50.524;8.684;2024-02-16T12:37:12;99288.94;;;15.06;88.14
41202;BME280;26936;50.524;8.684;2024-02-16T12:39:38;99291.97;;;15.02;87.93
41202;BME280;26936;50.524;8.684;2024-02-16T12:42:04;99288.47;;;15.08;88.92
41202;BME280;26936;50.524;8.684;2024-02-16T12:44:29;99287.09;;;15.03;88.78
41202;BME280;26936;50.524;8.684;2024-02-16T12:46:55;99291.09;;;15.11;88.13
41202;BME280;26936;50.524;8.684;2024-02-16T12:49:21;99297.47;;;15.21;87.80